createdAt,value
2022-12-06T00:00:40.810Z,6.35
2022-12-06T00:03:46.606Z,7.00
2022-12-06T00:06:52.515Z,6.10
2022-12-06T00:09:55.482Z,6.50
2022-12-06T00:12:58.482Z,6.82
2022-12-06T00:16:03.837Z,6.85
2022-12-06T00:19:08.477Z,7.07
2022-12-06T00:22:11.453Z,6.32
2022-12-06T00:25:14.474Z,6.60
2022-12-06T00:28:17.517Z,6.35
2022-12-06T00:31:22.185Z,6.40
2022-12-06T00:34:26.806Z,5.63
2022-12-06T00:37:29.798Z,6.10
2022-12-06T00:40:32.685Z,6.35
2022-12-06T00:43:36.664Z,6.97
2022-12-06T00:46:40.464Z,6.65
2022-12-06T00:49:44.870Z,6.15
2022-12-06T00:52:47.887Z,5.70
2022-12-06T00:55:52.034Z,7.32
2022-12-06T00:58:55.663Z,6.00
2022-12-06T01:01:58.754Z,6.03
2022-12-06T01:05:03.075Z,6.20
2022-12-06T01:08:06.646Z,6.47
2022-12-06T01:11:10.655Z,5.85
2022-12-06T01:14:13.618Z,5.68
2022-12-06T01:17:16.573Z,6.72
2022-12-06T01:20:20.887Z,6.15
2022-12-06T01:23:23.942Z,6.57
2022-12-06T01:26:28.743Z,6.57
2022-12-06T01:29:31.777Z,5.65
2022-12-06T01:32:34.769Z,5.68
2022-12-06T01:35:41.675Z,6.07
2022-12-06T01:38:44.979Z,6.28
2022-12-06T01:41:47.992Z,5.25
2022-12-06T01:44:54.286Z,6.05
2022-12-06T01:47:57.262Z,5.68
2022-12-06T01:51:02.974Z,6.75
2022-12-06T01:54:10.514Z,5.57
2022-12-06T01:57:17.005Z,5.47
2022-12-06T02:00:20.821Z,5.95
2022-12-06T02:03:27.051Z,6.00
2022-12-06T02:06:33.410Z,5.03
2022-12-06T02:09:37.954Z,5.07
2022-12-06T02:12:40.881Z,5.40
2022-12-06T02:15:57.477Z,5.43
2022-12-06T02:19:09.576Z,5.97
2022-12-06T02:22:20.816Z,6.15
2022-12-06T02:25:50.990Z,5.88
2022-12-06T02:29:24.451Z,5.95
2022-12-06T02:32:33.501Z,5.38
2022-12-06T02:35:41.414Z,5.28
2022-12-06T02:38:48.189Z,5.68
2022-12-06T02:41:57.368Z,5.20
2022-12-06T02:45:04.794Z,5.40
2022-12-06T02:48:10.962Z,5.40
2022-12-06T02:51:16.273Z,5.20
2022-12-06T02:54:20.097Z,5.60
2022-12-06T02:57:34.638Z,5.80
2022-12-06T03:00:40.374Z,5.32
2022-12-06T03:03:52.622Z,5.22
2022-12-06T03:07:14.038Z,5.13
2022-12-06T03:10:30.445Z,5.28
2022-12-06T03:13:40.721Z,5.05
2022-12-06T03:16:49.334Z,5.10
2022-12-06T03:19:59.597Z,5.18
2022-12-06T03:23:07.103Z,4.32
2022-12-06T03:26:14.467Z,5.00
2022-12-06T03:29:20.890Z,5.10
2022-12-06T03:32:27.104Z,5.55
2022-12-06T03:35:35.302Z,5.35
2022-12-06T03:38:45.929Z,5.32
2022-12-06T03:41:54.523Z,5.00
2022-12-06T03:44:57.842Z,5.18
2022-12-06T03:48:06.018Z,4.93
2022-12-06T03:51:15.494Z,5.35
2022-12-06T03:54:18.887Z,5.30
2022-12-06T03:57:21.924Z,4.88
2022-12-06T04:00:24.993Z,5.10
2022-12-06T04:03:27.925Z,5.10
2022-12-06T04:06:32.497Z,4.97
2022-12-06T04:09:56.230Z,4.95
2022-12-06T04:13:02.352Z,5.05
2022-12-06T04:16:25.704Z,4.85
2022-12-06T04:19:27.750Z,4.95
2022-12-06T04:22:49.543Z,4.50
2022-12-06T04:25:52.527Z,4.80
2022-12-06T04:29:13.422Z,4.57
2022-12-06T04:32:33.643Z,4.50
2022-12-06T04:35:53.706Z,4.85
2022-12-06T04:38:58.208Z,5.32
2022-12-06T04:42:19.074Z,4.82
2022-12-06T04:45:21.992Z,4.93
2022-12-06T04:48:25.037Z,4.45
2022-12-06T04:51:28.414Z,5.03
2022-12-06T04:54:32.965Z,5.20
2022-12-06T04:57:36.011Z,4.97
2022-12-06T05:00:43.568Z,5.28
2022-12-06T05:03:46.670Z,4.70
2022-12-06T05:06:49.782Z,4.53
2022-12-06T05:09:54.074Z,4.45
2022-12-06T05:12:57.154Z,4.85
2022-12-06T05:16:02.197Z,4.53
2022-12-06T05:19:05.278Z,4.35
2022-12-06T05:22:08.226Z,4.32
2022-12-06T05:25:12.708Z,4.85
2022-12-06T05:28:15.637Z,4.63
2022-12-06T05:31:19.619Z,4.18
2022-12-06T05:34:22.690Z,4.30
2022-12-06T05:37:25.640Z,4.20
2022-12-06T05:40:29.995Z,4.68
2022-12-06T05:43:33.325Z,4.13
2022-12-06T05:46:36.255Z,4.35
2022-12-06T05:49:39.214Z,4.72
2022-12-06T05:52:42.187Z,4.72
2022-12-06T05:55:46.722Z,4.03
2022-12-06T05:58:49.710Z,4.10
2022-12-06T06:01:52.781Z,4.05
2022-12-06T06:04:55.745Z,3.80
2022-12-06T06:07:59.206Z,4.00
2022-12-06T06:11:03.721Z,3.88
2022-12-06T06:14:06.833Z,4.13
2022-12-06T06:17:10.268Z,4.03
2022-12-06T06:20:14.082Z,4.28
2022-12-06T06:23:17.118Z,4.43
2022-12-06T06:26:22.073Z,4.50
2022-12-06T06:29:25.226Z,4.93
2022-12-06T06:32:28.183Z,4.97
2022-12-06T06:35:31.135Z,4.93
2022-12-06T06:38:34.249Z,5.30
2022-12-06T06:41:38.987Z,5.25
2022-12-06T06:44:41.983Z,5.15
2022-12-06T06:47:45.011Z,5.18
2022-12-06T06:50:52.646Z,4.80
2022-12-06T06:53:58.698Z,4.97
2022-12-06T06:57:03.464Z,4.53
2022-12-06T07:00:08.228Z,4.38
2022-12-06T07:03:15.283Z,4.68
2022-12-06T07:06:18.735Z,4.63
2022-12-06T07:09:21.774Z,4.35
2022-12-06T07:12:26.094Z,4.72
2022-12-06T07:15:29.108Z,4.47
2022-12-06T07:18:32.126Z,4.63
2022-12-06T07:21:35.091Z,4.55
2022-12-06T07:24:42.111Z,4.55
2022-12-06T07:27:48.030Z,4.00
2022-12-06T07:30:51.131Z,4.82
2022-12-06T07:33:55.873Z,4.13
2022-12-06T07:36:58.841Z,4.65
2022-12-06T07:40:02.216Z,4.20
2022-12-06T07:43:23.919Z,4.80
2022-12-06T07:46:26.878Z,4.57
2022-12-06T07:49:30.530Z,5.05
2022-12-06T07:52:34.386Z,4.57
2022-12-06T07:55:37.450Z,3.97
2022-12-06T07:58:42.447Z,4.35
2022-12-06T08:01:45.568Z,4.38
2022-12-06T08:04:48.936Z,4.35
2022-12-06T08:07:52.040Z,4.10
2022-12-06T08:10:55.278Z,4.40
2022-12-06T08:13:59.650Z,4.32
2022-12-06T08:17:02.819Z,4.05
2022-12-06T08:20:07.446Z,4.00
2022-12-06T08:23:10.473Z,4.38
2022-12-06T08:26:16.116Z,4.00
2022-12-06T08:29:20.958Z,4.07
2022-12-06T08:32:24.013Z,4.07
2022-12-06T08:35:27.114Z,3.58
2022-12-06T08:38:30.302Z,3.85
2022-12-06T08:41:59.557Z,3.70
2022-12-06T08:45:04.166Z,3.75
2022-12-06T08:48:07.526Z,3.97
2022-12-06T08:51:10.586Z,3.92
2022-12-06T08:54:15.507Z,3.80
2022-12-06T08:57:18.509Z,3.97
2022-12-06T09:00:23.474Z,3.88
2022-12-06T09:03:27.748Z,3.35
2022-12-06T09:06:31.505Z,4.25
2022-12-06T09:09:34.694Z,4.15
2022-12-06T09:12:37.739Z,3.50
2022-12-06T09:15:42.248Z,3.53
2022-12-06T09:18:45.909Z,3.47
2022-12-06T09:21:48.936Z,3.30
2022-12-06T09:24:51.906Z,4.40
2022-12-06T09:27:55.188Z,2.53
2022-12-06T09:30:59.804Z,3.08
2022-12-06T09:34:02.878Z,3.38
2022-12-06T09:37:10.099Z,3.38
2022-12-06T09:40:21.283Z,3.10
2022-12-06T09:43:40.409Z,3.03
2022-12-06T09:46:58.959Z,3.40
2022-12-06T09:50:13.182Z,3.75
2022-12-06T09:53:23.793Z,2.70
2022-12-06T09:56:31.943Z,3.35
2022-12-06T09:59:44.787Z,2.65
2022-12-06T10:03:22.989Z,4.25
2022-12-06T10:06:34.922Z,3.00
2022-12-06T10:09:46.955Z,3.20
2022-12-06T10:13:00.086Z,2.78
2022-12-06T10:16:13.461Z,3.20
2022-12-06T10:19:27.320Z,3.17
2022-12-06T10:22:42.679Z,3.92
2022-12-06T10:25:58.127Z,3.30
2022-12-06T10:29:09.125Z,3.90
2022-12-06T10:32:18.855Z,3.45
2022-12-06T10:35:37.027Z,2.92
2022-12-06T10:38:45.665Z,3.50
2022-12-06T10:41:56.702Z,2.70
2022-12-06T10:45:25.118Z,2.88
2022-12-06T10:48:34.145Z,3.22
2022-12-06T10:51:44.499Z,3.17
2022-12-06T10:54:58.425Z,3.00
2022-12-06T10:58:12.563Z,3.05
2022-12-06T11:01:20.496Z,2.40
2022-12-06T11:04:26.225Z,2.75
2022-12-06T11:07:36.568Z,3.67
2022-12-06T11:10:45.259Z,2.38
2022-12-06T11:13:52.982Z,2.92
2022-12-06T11:17:00.774Z,3.20
2022-12-06T11:20:11.782Z,3.05
2022-12-06T11:23:22.821Z,3.10
2022-12-06T11:26:36.112Z,2.90
2022-12-06T11:29:39.103Z,3.10
2022-12-06T11:32:42.882Z,2.72
2022-12-06T11:35:47.982Z,2.78
2022-12-06T11:38:51.337Z,2.78
2022-12-06T11:41:57.922Z,2.78
2022-12-06T11:45:07.852Z,3.13
2022-12-06T11:48:16.483Z,3.10
2022-12-06T11:51:21.622Z,3.88
2022-12-06T11:54:30.315Z,2.75
2022-12-06T11:57:42.540Z,2.67
2022-12-06T12:00:58.294Z,3.22
2022-12-06T12:04:21.251Z,2.50
2022-12-06T12:07:26.830Z,2.80
2022-12-06T12:10:34.837Z,2.90
2022-12-06T12:13:45.154Z,3.05
2022-12-06T12:16:51.406Z,3.00
2022-12-06T12:20:00.213Z,3.15
2022-12-06T12:23:06.998Z,2.50
2022-12-06T12:26:14.546Z,3.63
2022-12-06T12:29:20.741Z,3.05
2022-12-06T12:32:23.736Z,3.00
2022-12-06T12:35:28.417Z,3.47
2022-12-06T12:38:38.451Z,2.53
2022-12-06T12:41:44.726Z,2.75
2022-12-06T12:44:49.187Z,2.67
2022-12-06T12:48:00.161Z,2.50
2022-12-06T12:51:05.773Z,2.63
2022-12-06T12:54:23.989Z,2.58
2022-12-06T12:57:27.100Z,2.45
2022-12-06T13:00:36.422Z,2.78
2022-12-06T13:03:51.195Z,2.50
2022-12-06T13:06:59.427Z,2.42
2022-12-06T13:10:06.142Z,2.63
2022-12-06T13:13:16.411Z,2.33
2022-12-06T13:16:28.902Z,2.85
2022-12-06T13:19:35.292Z,3.42
2022-12-06T13:22:45.282Z,2.42
2022-12-06T13:25:55.093Z,2.40
2022-12-06T13:29:02.826Z,2.22
2022-12-06T13:32:15.159Z,2.63
2022-12-06T13:35:24.971Z,2.80
2022-12-06T13:38:32.511Z,2.40
2022-12-06T13:42:13.640Z,2.55
2022-12-06T13:45:43.428Z,2.42
2022-12-06T13:48:52.753Z,2.78
2022-12-06T13:51:55.976Z,2.90
2022-12-06T13:54:59.080Z,2.65
2022-12-06T13:58:40.086Z,2.58
2022-12-06T14:01:44.729Z,2.70
2022-12-06T14:04:49.146Z,2.40
2022-12-06T14:07:58.509Z,2.50
2022-12-06T14:11:15.393Z,2.45
2022-12-06T14:14:20.321Z,2.50
2022-12-06T14:17:53.032Z,2.92
2022-12-06T14:20:52.431Z,2.53
2022-12-06T14:23:55.466Z,2.67
2022-12-06T14:27:05.954Z,2.45
2022-12-06T14:30:23.513Z,2.70
2022-12-06T14:33:28.429Z,2.40
2022-12-06T14:36:35.883Z,2.97
2022-12-06T14:39:38.872Z,2.60
2022-12-06T14:43:02.544Z,2.90
2022-12-06T14:46:07.987Z,2.70
2022-12-06T14:49:32.303Z,2.83
2022-12-06T14:52:36.665Z,3.05
2022-12-06T14:55:54.079Z,2.95
2022-12-06T14:58:59.095Z,3.10
2022-12-06T15:02:02.247Z,3.03
2022-12-06T15:05:05.673Z,2.35
2022-12-06T15:08:34.570Z,2.60
2022-12-06T15:11:57.377Z,2.28
2022-12-06T15:15:00.457Z,2.40
2022-12-06T15:18:13.858Z,3.15
2022-12-06T15:21:18.887Z,2.28
2022-12-06T15:24:25.149Z,2.20
2022-12-06T15:27:28.216Z,2.60
2022-12-06T15:30:31.110Z,2.40
2022-12-06T15:33:34.240Z,2.35
2022-12-06T15:36:37.311Z,2.58
2022-12-06T15:39:42.209Z,2.80
2022-12-06T15:42:45.195Z,2.60
2022-12-06T15:45:48.439Z,2.55
2022-12-06T15:48:52.539Z,3.22
2022-12-06T15:51:55.602Z,2.67
2022-12-06T15:55:00.329Z,2.20
2022-12-06T15:58:03.709Z,2.20
2022-12-06T16:01:12.202Z,2.35
2022-12-06T16:04:17.537Z,2.17
2022-12-06T16:07:20.599Z,2.60
2022-12-06T16:10:42.613Z,2.55
2022-12-06T16:13:48.829Z,2.25
2022-12-06T16:16:51.903Z,2.22
2022-12-06T16:20:12.402Z,2.17
2022-12-06T16:24:04.546Z,2.40
2022-12-06T16:26:59.432Z,2.67
2022-12-06T16:30:02.501Z,2.20
2022-12-06T16:33:07.708Z,2.60
2022-12-06T16:36:13.515Z,2.33
2022-12-06T16:39:16.597Z,2.30
2022-12-06T16:42:20.950Z,2.17
2022-12-06T16:45:24.051Z,2.30
2022-12-06T16:48:27.305Z,2.53
2022-12-06T16:51:32.801Z,1.92
2022-12-06T16:54:35.848Z,2.40
2022-12-06T16:57:40.218Z,2.17
2022-12-06T17:00:43.266Z,2.35
2022-12-06T17:03:49.520Z,2.13
2022-12-06T17:06:52.580Z,2.13
2022-12-06T17:09:55.916Z,2.10
2022-12-06T17:13:00.240Z,2.20
2022-12-06T17:16:03.369Z,2.20
2022-12-06T17:19:08.636Z,2.35
2022-12-06T17:22:12.703Z,2.20
2022-12-06T17:25:17.311Z,2.30
2022-12-06T17:28:21.791Z,2.05
2022-12-06T17:31:24.823Z,2.30
2022-12-06T17:34:27.851Z,2.17
2022-12-06T17:37:30.898Z,2.10
2022-12-06T17:40:34.056Z,2.00
2022-12-06T17:43:37.471Z,1.90
2022-12-06T17:46:41.311Z,1.75
2022-12-06T17:49:44.374Z,2.20
2022-12-06T17:52:48.446Z,2.05
2022-12-06T17:55:51.452Z,1.98
2022-12-06T17:58:57.088Z,2.15
2022-12-06T18:02:17.857Z,1.98
2022-12-06T18:05:21.523Z,1.90
2022-12-06T18:08:24.611Z,2.08
2022-12-06T18:11:28.804Z,2.00
2022-12-06T18:14:33.568Z,2.25
2022-12-06T18:17:37.011Z,2.10
2022-12-06T18:20:41.075Z,2.13
2022-12-06T18:24:05.456Z,2.10
2022-12-06T18:27:07.447Z,1.73
2022-12-06T18:30:12.765Z,2.33
2022-12-06T18:33:19.325Z,1.83
2022-12-06T18:36:24.883Z,2.60
2022-12-06T18:39:28.148Z,1.90
2022-12-06T18:42:31.250Z,2.30
2022-12-06T18:45:35.841Z,2.50
2022-12-06T18:48:40.695Z,2.35
2022-12-06T18:51:43.703Z,2.17
2022-12-06T18:54:46.692Z,1.95
2022-12-06T18:57:49.795Z,2.70
2022-12-06T19:00:54.175Z,2.00
2022-12-06T19:03:59.583Z,1.80
2022-12-06T19:07:02.691Z,1.80
2022-12-06T19:10:06.782Z,2.22
2022-12-06T19:13:09.918Z,1.92
2022-12-06T19:16:14.355Z,2.83
2022-12-06T19:19:19.939Z,1.90
2022-12-06T19:22:22.987Z,1.90
2022-12-06T19:25:26.035Z,2.20
2022-12-06T19:28:29.882Z,2.15
2022-12-06T19:31:34.366Z,1.90
2022-12-06T19:34:37.436Z,2.20
2022-12-06T19:37:40.435Z,1.98
2022-12-06T19:40:43.469Z,2.33
2022-12-06T19:44:03.565Z,2.20
2022-12-06T19:47:07.985Z,1.90
2022-12-06T19:50:11.702Z,1.80
2022-12-06T19:53:14.776Z,1.80
2022-12-06T19:56:20.110Z,1.92
2022-12-06T19:59:23.674Z,1.90
2022-12-06T20:02:28.147Z,1.83
2022-12-06T20:05:31.250Z,1.65
2022-12-06T20:08:34.374Z,2.00
2022-12-06T20:11:56.486Z,1.90
2022-12-06T20:14:59.552Z,2.20
2022-12-06T20:18:03.981Z,1.73
2022-12-06T20:21:07.550Z,1.85
2022-12-06T20:24:11.244Z,1.83
2022-12-06T20:27:14.294Z,1.77
2022-12-06T20:30:17.987Z,1.98
2022-12-06T20:33:22.815Z,1.90
2022-12-06T20:36:26.388Z,2.25
2022-12-06T20:39:29.432Z,1.80
2022-12-06T20:42:33.285Z,1.83
2022-12-06T20:45:36.631Z,2.25
2022-12-06T20:48:41.434Z,1.90
2022-12-06T20:51:49.524Z,1.70
2022-12-06T20:54:55.651Z,1.77
2022-12-06T20:57:59.081Z,1.70
2022-12-06T21:01:02.835Z,1.67
2022-12-06T21:04:08.258Z,1.80
2022-12-06T21:07:11.258Z,2.08
2022-12-06T21:10:14.316Z,1.92
2022-12-06T21:13:17.346Z,1.70
2022-12-06T21:16:23.544Z,1.45
2022-12-06T21:19:28.007Z,1.75
2022-12-06T21:22:31.127Z,1.75
2022-12-06T21:25:37.025Z,1.83
2022-12-06T21:28:40.097Z,2.47
2022-12-06T21:31:43.671Z,1.75
2022-12-06T21:34:48.141Z,1.30
2022-12-06T21:37:51.215Z,1.67
2022-12-06T21:40:57.510Z,1.70
2022-12-06T21:44:04.601Z,1.73
2022-12-06T21:47:07.822Z,2.00
2022-12-06T21:50:13.503Z,1.85
2022-12-06T21:53:17.419Z,1.90
2022-12-06T21:56:22.592Z,1.75
2022-12-06T21:59:26.789Z,2.10
2022-12-06T22:02:29.864Z,1.70
2022-12-06T22:05:34.262Z,1.88
2022-12-06T22:08:38.825Z,2.15
2022-12-06T22:11:41.847Z,1.60
2022-12-06T22:14:44.865Z,1.83
2022-12-06T22:17:47.827Z,1.45
2022-12-06T22:21:00.275Z,1.80
2022-12-06T22:24:03.409Z,1.60
2022-12-06T22:27:06.545Z,1.50
2022-12-06T22:30:10.787Z,2.25
2022-12-06T22:33:13.737Z,1.60
2022-12-06T22:36:19.347Z,1.88
2022-12-06T22:39:22.318Z,1.52
2022-12-06T22:42:25.269Z,1.60
2022-12-06T22:45:28.298Z,1.40
2022-12-06T22:48:31.574Z,1.73
2022-12-06T22:51:38.437Z,1.48
2022-12-06T22:54:41.402Z,1.65
2022-12-06T22:57:44.295Z,2.47
2022-12-06T23:00:47.268Z,1.70
2022-12-06T23:03:51.917Z,1.60
2022-12-06T23:06:56.274Z,1.50
2022-12-06T23:09:59.669Z,1.70
2022-12-06T23:13:02.857Z,1.20
2022-12-06T23:16:10.363Z,1.50
2022-12-06T23:19:13.470Z,1.50
2022-12-06T23:22:17.854Z,1.60
2022-12-06T23:25:20.810Z,1.25
2022-12-06T23:28:24.799Z,1.27
2022-12-06T23:31:29.602Z,1.48
2022-12-06T23:34:32.635Z,1.35
2022-12-06T23:37:36.987Z,2.67
2022-12-06T23:40:39.975Z,1.50
2022-12-06T23:43:43.740Z,1.20
2022-12-06T23:46:46.788Z,1.70
2022-12-06T23:49:49.874Z,1.60
2022-12-06T23:52:54.320Z,1.40
2022-12-06T23:55:59.939Z,1.50
2022-12-06T23:59:05.206Z,1.48
